Meteo Giornale » Osservazioni meteo Slovenia » Cerklje

ore: 21:30 - Osservazioni Meteo Cerklje
Lat. 45° 54' N Lon. 15° 31' E Alt. 155 metri s.l.m.

sereno Europe/Ljubljana

2 °C

Sereno

Temp. 24 Ore

-6 °C

12 °C

Nord

1.8 Km/h

Dew point -4 °C

Umidità 64 %

Visibilità  10 Km

Il sole sorge alle ore 06:32

Il sole tramonta alle ore 19:29

Data e Ora Cielo e Fenomeni T °C DP °C Um. % Pres. hPa Vis. km Vento km/h
Oggi h: 21:30 sereno Sereno 2 -4 64 1012 10 N 1.8
Oggi h: 20:30 sereno Sereno 5 -5 48 1012 10 N 1.8
Oggi h: 20:00 sereno Sereno 6 -5 45 1012 10 E 11.1
Oggi h: 19:30 sereno Sereno 8 -6 36 1011 10 E/NE 7.4
Oggi h: 19:00 sereno Sereno 10 -5 34 1011 10 E/NE 9.3
Oggi h: 18:00 sereno Sereno 12 -6 27 1012 10 E/NE 9.3
Oggi h: 17:30 sereno Sereno 12 -7 25 1012 10 E 7.4
Oggi h: 17:00 sereno Sereno 12 -7 25 1012 10 NE 7.4
Oggi h: 16:30 sereno Sereno 11 -7 27 1012 10 N/NE 7.4
Oggi h: 16:00 sereno Sereno 11 -8 25 1013 10 N 7.4
Oggi h: 15:30 sereno Sereno 11 -8 25 1013 10 N 7.4
Oggi h: 15:00 sereno Sereno 11 -8 25 1014 10 E/NE 9.3
Oggi h: 14:30 sereno Sereno 11 -7 27 1014 10 NE 9.3
Oggi h: 14:00 sereno Sereno 10 -8 27 1014 10 N 7.4
Oggi h: 13:30 sereno Sereno 10 -8 27 1015 10 NE 9.3
Oggi h: 13:00 sereno Sereno 10 -9 25 1015 10 N/NE 9.3
Oggi h: 12:30 sereno Sereno 10 -8 27 1016 10 NE 13
Oggi h: 12:00 sereno Sereno 9 -8 29 1016 10 NE 13
Oggi h: 11:30 sereno Sereno 8 -10 26 1016 10 NE 11.1
Oggi h: 11:00 sereno Sereno 7 -7 36 1016 10 N 5.5
Oggi h: 10:30 sereno Sereno 6 -7 38 1017 10 N 3.7
Oggi h: 10:00 sereno Sereno 4 -7 44 1017 10 N 5.5
Oggi h: 09:30 sereno Sereno 2 -6 55 1017 10 N 3.7
Oggi h: 09:00 sereno Sereno 1 -6 59 1017 10 N 1.8
Oggi h: 08:30 sereno Sereno -1 -6 68 1017 10 N 3.7
Oggi h: 07:30 sereno Sereno -5 -7 85 1017 10 N 3.7
Oggi h: 07:00 sereno Sereno -6 -8 85 1017 10 N 0
Oggi h: 06:00 sereno Sereno -6 -9 79 1017 10 N 1.8
Oggi h: 05:30 sereno Sereno -6 -8 85 1017 10 N 1.8
Oggi h: 05:00 sereno Sereno -5 -7 85 1017 10 N 1.8
Oggi h: 04:30 sereno Sereno -6 -9 79 1017 10 N 1.8
Oggi h: 04:00 sereno Sereno -5 -8 79 1017 10 N 1.8
Oggi h: 03:30 sereno Sereno -5 -8 79 1018 10 N 0
Oggi h: 03:00 sereno Sereno -4 -8 73 1018 10 N 3.7
Oggi h: 02:30 sereno Sereno -5 -8 79 1018 10 O 7.4
Oggi h: 02:00 sereno Sereno -4 -8 73 1018 10 N 3.7
Oggi h: 01:30 sereno Sereno -3 -8 68 1019 10 N 0
Oggi h: 00:30 sereno Sereno -3 -7 73 1019 10 N 0
Ieri h: 23:30 sereno Sereno -2 -8 63 1019 10 N 0
Ieri h: 23:00 sereno Sereno -2 -7 68 1019 10 N 1.8